createdAt,value
2017-08-17T00:00:25.275Z,75.20
2017-08-17T00:03:27.375Z,75.40
2017-08-17T00:06:28.771Z,75.30
2017-08-17T00:09:30.173Z,75.20
2017-08-17T00:12:31.595Z,75.40
2017-08-17T00:15:33.785Z,75.80
2017-08-17T00:18:35.211Z,75.80
2017-08-17T00:21:37.311Z,76.10
2017-08-17T00:24:38.704Z,76.10
2017-08-17T00:27:40.076Z,76.30
2017-08-17T00:30:41.476Z,76.00
2017-08-17T00:33:42.862Z,75.70
2017-08-17T00:36:44.356Z,75.50
2017-08-17T00:39:45.778Z,74.60
2017-08-17T00:42:47.320Z,74.80
2017-08-17T00:45:48.747Z,75.00
2017-08-17T00:48:50.147Z,74.90
2017-08-17T00:51:52.289Z,75.50
2017-08-17T00:54:53.706Z,75.40
2017-08-17T00:57:55.166Z,75.20
2017-08-17T01:00:56.642Z,75.80
2017-08-17T01:03:58.287Z,75.50
2017-08-17T01:06:59.716Z,75.20
2017-08-17T01:10:01.095Z,75.30
2017-08-17T01:13:02.588Z,75.80
2017-08-17T01:16:04.821Z,75.20
2017-08-17T01:19:06.335Z,75.20
2017-08-17T01:22:07.801Z,75.60
2017-08-17T01:25:09.354Z,76.10
2017-08-17T01:28:10.870Z,75.70
2017-08-17T01:31:13.171Z,75.50
2017-08-17T01:34:14.561Z,75.30
2017-08-17T01:37:16.021Z,75.40
2017-08-17T01:40:17.516Z,75.70
2017-08-17T01:43:19.810Z,76.10
2017-08-17T01:46:21.266Z,76.00
2017-08-17T01:49:22.742Z,76.10
2017-08-17T01:52:24.204Z,76.50
2017-08-17T01:55:25.640Z,76.30
2017-08-17T01:58:27.299Z,76.30
2017-08-17T02:01:28.844Z,76.00
2017-08-17T02:04:30.311Z,76.10
2017-08-17T02:07:31.719Z,75.80
2017-08-17T02:10:34.082Z,76.50
2017-08-17T02:13:36.289Z,76.50
2017-08-17T02:16:37.695Z,76.30
2017-08-17T02:19:39.799Z,76.00
2017-08-17T02:22:41.190Z,75.00
2017-08-17T02:25:42.590Z,76.30
2017-08-17T02:28:43.994Z,76.40
2017-08-17T02:31:45.542Z,76.20
2017-08-17T02:34:46.983Z,76.30
2017-08-17T02:40:56.939Z,76.40
2017-08-17T02:43:58.382Z,76.10
2017-08-17T02:46:59.752Z,76.90
2017-08-17T02:50:01.163Z,76.30
2017-08-17T02:53:02.532Z,77.30
2017-08-17T02:56:03.987Z,77.90
2017-08-17T02:59:05.365Z,78.20
2017-08-17T03:02:06.786Z,77.90
2017-08-17T03:05:08.199Z,77.00
2017-08-17T03:08:09.585Z,77.80
2017-08-17T03:11:10.972Z,77.90
2017-08-17T03:14:12.366Z,77.40
2017-08-17T03:17:14.510Z,77.80
2017-08-17T03:20:15.879Z,78.00
2017-08-17T03:23:18.041Z,78.60
2017-08-17T03:26:19.457Z,77.90
2017-08-17T03:29:21.827Z,77.60
2017-08-17T03:32:24.544Z,77.80
2017-08-17T03:35:25.990Z,77.10
2017-08-17T03:38:27.373Z,77.00
2017-08-17T03:41:28.948Z,77.50
2017-08-17T03:44:30.370Z,77.40
2017-08-17T03:47:32.545Z,76.90
2017-08-17T03:50:34.788Z,77.20
2017-08-17T03:53:36.164Z,76.40
2017-08-17T03:56:38.278Z,77.30
2017-08-17T03:59:39.639Z,77.00
2017-08-17T04:02:41.054Z,77.50
2017-08-17T04:05:42.435Z,77.80
2017-08-17T04:08:43.835Z,76.70
2017-08-17T04:11:45.262Z,77.60
2017-08-17T04:14:46.756Z,77.70
2017-08-17T04:17:48.266Z,78.00
2017-08-17T04:20:49.603Z,77.40
2017-08-17T04:23:51.024Z,77.60
2017-08-17T04:26:52.410Z,77.10
2017-08-17T04:29:53.874Z,77.20
2017-08-17T04:32:55.251Z,77.30
2017-08-17T04:35:57.481Z,77.10
2017-08-17T04:38:58.874Z,76.90
2017-08-17T04:42:00.987Z,76.60
2017-08-17T04:45:02.391Z,75.80
2017-08-17T04:48:04.516Z,76.70
2017-08-17T04:51:06.283Z,76.50
2017-08-17T04:57:40.452Z,76.80
2017-08-17T05:00:42.622Z,77.60
2017-08-17T05:03:44.031Z,77.60
2017-08-17T05:06:45.407Z,77.60
2017-08-17T05:09:46.860Z,77.20
2017-08-17T05:12:48.356Z,77.30
2017-08-17T05:15:49.670Z,77.30
2017-08-17T05:18:51.062Z,77.10
2017-08-17T05:21:52.409Z,77.40
2017-08-17T05:24:53.758Z,77.00
2017-08-17T05:27:55.119Z,77.30
2017-08-17T05:30:56.436Z,77.90
2017-08-17T05:33:58.526Z,77.90
2017-08-17T05:36:59.838Z,77.80
2017-08-17T05:40:01.183Z,77.20
2017-08-17T05:43:03.255Z,76.90
2017-08-17T05:46:04.611Z,77.60
2017-08-17T05:49:06.710Z,77.80
2017-08-17T05:52:08.600Z,77.60
2017-08-17T05:55:09.971Z,78.10
2017-08-17T05:58:11.342Z,77.10
2017-08-17T06:01:12.768Z,77.10
2017-08-17T06:04:14.138Z,77.60
2017-08-17T06:07:15.445Z,78.20
2017-08-17T06:10:16.868Z,77.10
2017-08-17T06:13:18.200Z,76.10
2017-08-17T06:16:20.388Z,76.50
2017-08-17T06:19:21.759Z,75.60
2017-08-17T06:22:23.099Z,75.50
2017-08-17T06:25:24.445Z,76.80
2017-08-17T06:28:27.511Z,76.70
2017-08-17T06:31:28.963Z,75.00
2017-08-17T06:34:31.092Z,74.50
2017-08-17T06:37:32.430Z,74.50
2017-08-17T06:40:33.785Z,74.20
2017-08-17T06:43:35.139Z,74.10
2017-08-17T06:46:36.482Z,73.80
2017-08-17T06:49:38.094Z,74.50
2017-08-17T06:52:40.232Z,71.80
2017-08-17T06:55:41.610Z,71.60
2017-08-17T06:58:43.762Z,71.80
2017-08-17T07:01:45.193Z,71.80
2017-08-17T07:04:46.546Z,74.20
2017-08-17T07:07:47.882Z,71.20
2017-08-17T07:10:49.276Z,72.70
2017-08-17T07:13:50.594Z,71.30
2017-08-17T07:16:51.988Z,71.30
2017-08-17T07:19:54.069Z,69.80
2017-08-17T07:22:55.438Z,69.70
2017-08-17T07:25:56.761Z,69.80
2017-08-17T07:28:58.813Z,70.10
2017-08-17T07:32:01.001Z,70.60
2017-08-17T07:35:02.357Z,70.50
2017-08-17T07:38:03.665Z,68.80
2017-08-17T07:41:05.035Z,69.10
2017-08-17T07:44:07.111Z,69.90
2017-08-17T07:47:09.277Z,72.20
2017-08-17T07:50:10.638Z,72.10
2017-08-17T07:53:11.976Z,70.90
2017-08-17T07:56:14.092Z,68.60
2017-08-17T07:59:15.538Z,68.20
2017-08-17T08:02:16.887Z,71.00
2017-08-17T08:05:18.607Z,69.40
2017-08-17T08:08:20.717Z,69.00
2017-08-17T08:11:22.074Z,69.00
2017-08-17T08:14:23.404Z,69.10
2017-08-17T08:17:24.800Z,68.40
2017-08-17T08:20:26.183Z,67.60
2017-08-17T08:23:28.233Z,67.80
2017-08-17T08:26:30.326Z,68.60
2017-08-17T08:29:31.632Z,68.90
2017-08-17T08:32:33.025Z,69.00
2017-08-17T08:35:34.354Z,68.00
2017-08-17T08:38:36.425Z,65.60
2017-08-17T08:41:38.545Z,66.80
2017-08-17T08:44:39.978Z,66.70
2017-08-17T08:47:41.392Z,66.60
2017-08-17T08:50:43.666Z,66.20
2017-08-17T08:53:45.041Z,65.60
2017-08-17T08:56:46.419Z,64.30
2017-08-17T08:59:47.898Z,66.10
2017-08-17T09:02:49.287Z,66.90
2017-08-17T09:05:50.670Z,65.90
2017-08-17T09:08:52.025Z,66.60
2017-08-17T09:11:53.409Z,66.90
2017-08-17T09:14:54.774Z,65.90
2017-08-17T09:17:56.920Z,67.40
2017-08-17T09:20:58.393Z,67.10
2017-08-17T09:24:00.501Z,67.90
2017-08-17T09:27:02.018Z,67.80
2017-08-17T09:30:04.098Z,68.60
2017-08-17T09:33:05.569Z,68.50
2017-08-17T09:36:06.982Z,68.80
2017-08-17T09:42:43.436Z,69.80
2017-08-17T09:45:44.793Z,69.70
2017-08-17T09:48:46.220Z,71.20
2017-08-17T09:51:47.631Z,70.20
2017-08-17T09:54:49.041Z,70.70
2017-08-17T09:57:50.513Z,70.10
2017-08-17T10:00:51.956Z,69.80
2017-08-17T10:03:53.438Z,71.80
2017-08-17T10:06:54.989Z,71.00
2017-08-17T10:09:56.391Z,70.70
2017-08-17T10:12:57.800Z,71.50
2017-08-17T10:15:59.377Z,71.50
2017-08-17T10:19:01.556Z,71.60
2017-08-17T10:22:02.938Z,71.40
2017-08-17T10:25:04.331Z,71.50
2017-08-17T10:28:06.477Z,71.10
2017-08-17T10:31:07.955Z,70.90
2017-08-17T10:34:09.379Z,70.20
2017-08-17T10:37:10.837Z,70.60
2017-08-17T10:40:12.886Z,71.70
2017-08-17T10:43:14.418Z,71.40
2017-08-17T10:46:15.770Z,70.80
2017-08-17T10:49:17.200Z,70.90
2017-08-17T10:52:19.326Z,71.00
2017-08-17T10:55:20.729Z,71.00
